createdAt,value
2017-10-16T00:02:19.175Z,10.10
2017-10-16T00:04:46.768Z,10.10
2017-10-16T00:07:14.338Z,8.87
2017-10-16T00:09:41.934Z,9.63
2017-10-16T00:12:10.283Z,8.73
2017-10-16T00:14:37.870Z,9.60
2017-10-16T00:17:06.342Z,9.33
2017-10-16T00:19:34.693Z,9.10
2017-10-16T00:22:02.279Z,9.20
2017-10-16T00:24:30.727Z,10.33
2017-10-16T00:26:58.307Z,10.53
2017-10-16T00:29:25.920Z,10.63
2017-10-16T00:31:53.485Z,11.03
2017-10-16T00:34:21.080Z,12.20
2017-10-16T00:36:48.666Z,13.57
2017-10-16T00:39:17.026Z,12.63
2017-10-16T00:41:45.391Z,13.40
2017-10-16T00:44:13.093Z,11.27
2017-10-16T00:46:40.839Z,11.60
2017-10-16T00:49:09.191Z,12.07
2017-10-16T00:51:36.811Z,11.77
2017-10-16T00:54:04.380Z,12.17
2017-10-16T00:56:32.068Z,13.03
2017-10-16T00:58:59.655Z,12.97
2017-10-16T01:01:27.990Z,13.63
2017-10-16T01:03:55.578Z,13.97
2017-10-16T01:06:23.903Z,11.93
2017-10-16T01:08:51.496Z,11.97
2017-10-16T01:11:19.055Z,11.10
2017-10-16T01:13:46.647Z,11.00
2017-10-16T01:16:14.982Z,11.60
2017-10-16T01:18:42.579Z,10.63
2017-10-16T01:21:10.953Z,10.47
2017-10-16T01:23:38.540Z,10.70
2017-10-16T01:26:06.147Z,12.03
2017-10-16T01:28:33.716Z,11.53
2017-10-16T01:31:01.307Z,10.13
2017-10-16T01:33:28.879Z,10.63
2017-10-16T01:35:56.470Z,11.17
2017-10-16T01:38:24.043Z,10.87
2017-10-16T01:40:52.580Z,10.60
2017-10-16T01:43:20.177Z,11.33
2017-10-16T01:45:47.843Z,11.63
2017-10-16T01:48:16.175Z,10.73
2017-10-16T01:50:43.780Z,10.37
2017-10-16T01:53:11.498Z,11.13
2017-10-16T01:55:39.086Z,12.20
2017-10-16T01:58:06.665Z,11.00
2017-10-16T02:00:34.267Z,11.70
2017-10-16T02:03:01.844Z,11.53
2017-10-16T02:05:29.448Z,11.27
2017-10-16T02:07:57.020Z,12.57
2017-10-16T02:10:25.375Z,11.27
2017-10-16T02:12:53.052Z,12.00
2017-10-16T02:15:21.461Z,11.50
2017-10-16T02:17:49.050Z,11.83
2017-10-16T02:20:16.643Z,11.60
2017-10-16T02:22:45.003Z,11.63
2017-10-16T02:25:12.787Z,12.50
2017-10-16T02:27:41.152Z,12.50
2017-10-16T02:30:08.752Z,11.27
2017-10-16T02:32:36.309Z,12.43
2017-10-16T02:35:03.948Z,11.63
2017-10-16T02:37:32.292Z,12.80
2017-10-16T02:39:59.876Z,11.43
2017-10-16T02:42:28.214Z,11.93
2017-10-16T02:44:55.824Z,11.20
2017-10-16T02:47:23.416Z,12.00
2017-10-16T02:49:51.020Z,11.50
2017-10-16T02:52:19.425Z,12.77
2017-10-16T02:54:47.115Z,11.67
2017-10-16T02:57:14.689Z,11.80
2017-10-16T02:59:42.299Z,13.00
2017-10-16T03:02:09.871Z,11.70
2017-10-16T03:04:37.471Z,11.70
2017-10-16T03:07:05.060Z,11.57
2017-10-16T03:09:33.416Z,11.87
2017-10-16T03:12:00.984Z,11.80
2017-10-16T03:14:29.351Z,12.87
2017-10-16T03:16:57.033Z,14.20
2017-10-16T03:19:24.628Z,12.00
2017-10-16T03:21:52.237Z,11.30
2017-10-16T03:24:21.324Z,12.00
2017-10-16T03:26:48.924Z,12.37
2017-10-16T03:29:16.496Z,11.53
2017-10-16T03:31:44.057Z,12.90
2017-10-16T03:34:11.647Z,13.27
2017-10-16T03:36:39.212Z,13.43
2017-10-16T03:39:06.803Z,13.33
2017-10-16T03:41:35.140Z,13.37
2017-10-16T03:44:02.739Z,12.97
2017-10-16T03:46:31.071Z,13.00
2017-10-16T03:48:58.679Z,11.67
2017-10-16T03:51:27.042Z,12.00
2017-10-16T03:53:55.380Z,12.40
2017-10-16T03:56:22.989Z,12.83
2017-10-16T03:58:51.328Z,14.10
2017-10-16T04:01:18.938Z,13.27
2017-10-16T04:03:46.612Z,13.47
2017-10-16T04:06:14.242Z,13.90
2017-10-16T04:08:42.703Z,12.80
2017-10-16T04:11:10.292Z,13.10
2017-10-16T04:13:37.908Z,14.03
2017-10-16T04:16:05.488Z,11.57
2017-10-16T04:18:33.059Z,13.20
2017-10-16T04:21:01.579Z,11.73
2017-10-16T04:23:29.211Z,11.60
2017-10-16T04:25:56.822Z,12.43
2017-10-16T04:28:24.423Z,12.17
2017-10-16T04:30:52.756Z,11.50
2017-10-16T04:33:20.449Z,12.07
2017-10-16T04:35:48.788Z,12.70
2017-10-16T04:38:16.391Z,13.50
2017-10-16T04:40:44.736Z,15.20
2017-10-16T04:43:13.110Z,14.30
2017-10-16T04:45:40.703Z,13.40
2017-10-16T04:48:09.064Z,13.80
2017-10-16T04:50:37.460Z,13.60
2017-10-16T04:53:05.800Z,12.80
2017-10-16T04:55:33.400Z,13.23
2017-10-16T04:58:01.726Z,11.17
2017-10-16T05:00:29.334Z,12.33
2017-10-16T05:02:57.700Z,11.17
2017-10-16T05:05:26.095Z,11.73
2017-10-16T05:07:53.667Z,13.20
2017-10-16T05:10:21.268Z,12.50
2017-10-16T05:12:49.022Z,12.93
2017-10-16T05:15:16.596Z,13.10
2017-10-16T05:17:44.192Z,13.83
2017-10-16T05:20:11.807Z,14.10
2017-10-16T05:22:39.421Z,14.90
2017-10-16T05:25:07.000Z,14.30
2017-10-16T05:27:34.615Z,15.37
2017-10-16T05:30:02.949Z,14.73
2017-10-16T05:32:30.523Z,14.60
2017-10-16T05:34:58.119Z,16.83
2017-10-16T05:37:26.466Z,16.43
2017-10-16T05:39:54.079Z,15.40
2017-10-16T05:42:21.655Z,14.50
2017-10-16T05:44:49.303Z,14.50
2017-10-16T05:47:16.896Z,15.13
2017-10-16T05:49:44.535Z,13.93
2017-10-16T05:52:12.113Z,14.40
2017-10-16T05:54:39.827Z,14.37
2017-10-16T05:57:07.444Z,18.00
2017-10-16T05:59:35.028Z,18.03
2017-10-16T06:02:03.428Z,18.10
2017-10-16T06:04:31.032Z,16.13
2017-10-16T06:06:58.656Z,15.23
2017-10-16T06:09:26.343Z,15.93
2017-10-16T06:11:53.939Z,15.37
2017-10-16T06:14:22.279Z,13.40
2017-10-16T06:16:49.887Z,14.37
2017-10-16T06:19:18.252Z,17.50
2017-10-16T06:21:46.592Z,15.07
2017-10-16T06:24:14.187Z,16.03
2017-10-16T06:26:42.562Z,14.97
2017-10-16T06:29:10.919Z,15.97
2017-10-16T06:31:38.508Z,15.73
2017-10-16T06:34:06.872Z,15.40
2017-10-16T06:36:34.434Z,15.07
2017-10-16T06:39:02.801Z,16.67
2017-10-16T06:41:30.463Z,15.23
2017-10-16T06:43:58.059Z,13.67
2017-10-16T06:46:25.629Z,15.70
2017-10-16T06:48:53.239Z,15.70
2017-10-16T06:51:20.833Z,14.57
2017-10-16T06:53:48.427Z,14.83
2017-10-16T06:56:15.999Z,13.50
2017-10-16T06:58:43.587Z,14.87
2017-10-16T07:01:11.924Z,13.60
2017-10-16T07:03:39.515Z,15.67
2017-10-16T07:06:07.083Z,14.97
2017-10-16T07:08:35.440Z,15.50
2017-10-16T07:11:03.038Z,16.20
2017-10-16T07:13:30.599Z,15.20
2017-10-16T07:15:58.208Z,14.70
2017-10-16T07:18:25.804Z,14.37
2017-10-16T07:20:54.151Z,14.93
2017-10-16T07:23:21.716Z,13.00
2017-10-16T07:25:49.484Z,15.47
2017-10-16T07:28:17.083Z,13.60
2017-10-16T07:30:44.659Z,14.83
2017-10-16T07:33:12.224Z,14.03
2017-10-16T07:35:39.856Z,13.60
2017-10-16T07:38:07.538Z,12.00
2017-10-16T07:40:35.133Z,12.60
2017-10-16T07:43:02.744Z,13.60
2017-10-16T07:45:30.355Z,13.27
2017-10-16T07:47:57.922Z,12.03
2017-10-16T07:50:26.267Z,13.50
2017-10-16T07:52:53.862Z,13.33
2017-10-16T07:55:22.256Z,12.20
2017-10-16T07:57:49.891Z,12.80
2017-10-16T08:00:17.460Z,13.07
2017-10-16T08:02:45.852Z,12.80
2017-10-16T08:05:13.448Z,11.97
2017-10-16T08:07:41.032Z,12.83
2017-10-16T08:10:08.631Z,12.60
2017-10-16T08:12:36.200Z,11.97
2017-10-16T08:15:03.772Z,11.30
2017-10-16T08:17:31.357Z,11.67
2017-10-16T08:19:58.926Z,12.40
2017-10-16T08:22:26.503Z,11.60
2017-10-16T08:24:54.956Z,11.30
2017-10-16T08:27:22.531Z,12.10
2017-10-16T08:29:50.140Z,11.20
2017-10-16T08:32:17.705Z,11.83
2017-10-16T08:34:45.287Z,12.37
2017-10-16T08:37:12.859Z,11.23
2017-10-16T08:39:41.214Z,12.47
2017-10-16T08:42:08.778Z,13.00
2017-10-16T08:44:36.348Z,12.77
2017-10-16T08:47:03.948Z,13.10
2017-10-16T08:49:31.513Z,13.53
2017-10-16T08:51:59.108Z,14.57
2017-10-16T08:54:26.671Z,13.47
2017-10-16T08:56:54.347Z,12.67
2017-10-16T08:59:21.917Z,12.80
2017-10-16T09:01:49.521Z,13.13
2017-10-16T09:04:17.092Z,13.70
2017-10-16T09:06:44.712Z,12.80
2017-10-16T09:09:13.071Z,11.70
2017-10-16T09:11:40.643Z,11.60
2017-10-16T09:14:09.019Z,12.30
2017-10-16T09:16:37.352Z,12.07
2017-10-16T09:19:04.957Z,11.87
2017-10-16T09:21:33.324Z,12.20
2017-10-16T09:24:01.663Z,11.90
2017-10-16T09:26:29.248Z,11.60
2017-10-16T09:28:56.827Z,10.67
2017-10-16T09:31:25.191Z,11.10
2017-10-16T09:33:52.811Z,10.60
2017-10-16T09:36:20.483Z,11.10
2017-10-16T09:38:48.094Z,11.33
2017-10-16T09:41:15.676Z,12.73
2017-10-16T09:43:43.263Z,11.13
2017-10-16T09:46:10.854Z,11.30
2017-10-16T09:48:39.241Z,12.00
2017-10-16T09:51:07.572Z,10.30
2017-10-16T09:53:35.160Z,10.27
2017-10-16T09:56:03.527Z,10.70
2017-10-16T09:58:31.094Z,9.80
2017-10-16T10:00:59.452Z,10.77
2017-10-16T10:03:27.016Z,10.47
2017-10-16T10:05:54.613Z,10.23
2017-10-16T10:08:22.212Z,11.77
2017-10-16T10:10:49.783Z,10.17
2017-10-16T10:13:17.438Z,10.73
2017-10-16T10:15:45.006Z,9.80
2017-10-16T10:18:13.393Z,10.63
2017-10-16T10:20:40.999Z,10.50
2017-10-16T10:23:08.594Z,10.50
2017-10-16T10:25:36.192Z,10.03
2017-10-16T10:28:04.544Z,9.93
2017-10-16T10:30:32.238Z,9.27
2017-10-16T10:32:59.844Z,10.47
2017-10-16T10:35:27.443Z,10.63
2017-10-16T10:37:55.806Z,9.47
2017-10-16T10:40:23.510Z,10.60
2017-10-16T10:42:51.081Z,10.07
2017-10-16T10:45:18.642Z,10.20
2017-10-16T10:47:46.239Z,8.97
2017-10-16T10:50:13.904Z,9.40
2017-10-16T10:52:41.500Z,8.70
2017-10-16T10:55:09.088Z,8.67
2017-10-16T10:57:36.749Z,8.40
2017-10-16T11:00:04.368Z,8.57
2017-10-16T11:02:31.999Z,9.00
2017-10-16T11:04:59.559Z,9.90
2017-10-16T11:07:27.160Z,9.67
2017-10-16T11:09:54.731Z,9.17
2017-10-16T11:12:22.330Z,9.37
2017-10-16T11:14:49.903Z,10.03
2017-10-16T11:17:18.320Z,8.80
2017-10-16T11:19:45.896Z,9.43
2017-10-16T11:22:13.518Z,9.60
2017-10-16T11:24:41.116Z,10.43
2017-10-16T11:27:08.722Z,9.87
2017-10-16T11:29:37.076Z,8.50
2017-10-16T11:32:06.150Z,8.43
2017-10-16T11:34:33.738Z,9.03
2017-10-16T11:37:02.067Z,8.73
2017-10-16T11:39:29.664Z,9.47
2017-10-16T11:41:57.254Z,9.00
2017-10-16T11:44:24.962Z,8.37
2017-10-16T11:46:52.562Z,9.10
2017-10-16T11:49:20.919Z,10.53
2017-10-16T11:51:48.522Z,13.60
2017-10-16T11:54:16.151Z,13.63
2017-10-16T11:56:44.494Z,10.77
2017-10-16T11:59:12.087Z,11.10
2017-10-16T12:01:39.672Z,9.97
2017-10-16T12:04:07.325Z,9.70
2017-10-16T12:06:35.748Z,8.97
2017-10-16T12:09:03.328Z,8.90
2017-10-16T12:11:30.916Z,7.50
2017-10-16T12:13:59.312Z,8.70
2017-10-16T12:16:27.040Z,8.90
2017-10-16T12:18:55.438Z,7.90
2017-10-16T12:21:23.907Z,8.13
2017-10-16T12:23:52.243Z,7.90
2017-10-16T12:26:19.885Z,8.80
2017-10-16T12:28:47.491Z,8.70
2017-10-16T12:31:15.065Z,8.23
2017-10-16T12:33:43.436Z,8.60
2017-10-16T12:36:11.776Z,9.00
2017-10-16T12:38:39.425Z,9.00
2017-10-16T12:41:07.128Z,9.33
2017-10-16T12:43:35.492Z,8.23
2017-10-16T12:46:03.111Z,9.50
2017-10-16T12:48:30.737Z,8.57
2017-10-16T12:50:59.071Z,9.60
2017-10-16T12:53:26.720Z,9.30
2017-10-16T12:55:54.362Z,9.37
2017-10-16T12:58:21.939Z,8.57
2017-10-16T13:00:49.515Z,9.03
2017-10-16T13:03:17.160Z,9.33
2017-10-16T13:05:44.735Z,10.00
2017-10-16T13:08:12.328Z,9.07
2017-10-16T13:10:40.801Z,9.40
2017-10-16T13:13:09.164Z,8.77
2017-10-16T13:15:36.766Z,7.77
2017-10-16T13:18:04.363Z,7.87
2017-10-16T13:20:31.964Z,7.10
2017-10-16T13:23:00.290Z,7.70
2017-10-16T13:25:27.905Z,7.53
2017-10-16T13:27:55.491Z,8.20
2017-10-16T13:30:23.167Z,8.10
2017-10-16T13:32:50.783Z,7.60
2017-10-16T13:35:18.348Z,7.80
2017-10-16T13:37:45.951Z,6.90
2017-10-16T13:40:13.542Z,7.00
2017-10-16T13:42:41.904Z,7.40
2017-10-16T13:45:09.537Z,7.00
2017-10-16T13:47:37.147Z,7.23
2017-10-16T13:50:05.528Z,7.33
2017-10-16T13:52:33.911Z,7.47
2017-10-16T13:55:01.550Z,7.50
2017-10-16T13:57:30.091Z,6.90
2017-10-16T13:59:57.686Z,7.33
2017-10-16T14:02:26.107Z,7.33
2017-10-16T14:04:53.720Z,7.10
2017-10-16T14:07:22.100Z,7.80
2017-10-16T14:09:51.483Z,7.53
2017-10-16T14:12:19.081Z,7.50
2017-10-16T14:14:47.453Z,7.07
2017-10-16T14:17:15.100Z,6.27
2017-10-16T14:19:43.436Z,7.37
2017-10-16T14:22:11.023Z,7.23
2017-10-16T14:24:38.703Z,7.00
2017-10-16T14:27:07.167Z,7.33
2017-10-16T14:29:34.893Z,7.70
2017-10-16T14:32:02.502Z,7.43
2017-10-16T14:34:33.695Z,7.43
2017-10-16T14:37:01.349Z,7.53
2017-10-16T14:39:28.919Z,6.60
2017-10-16T14:41:56.603Z,7.83
2017-10-16T14:44:24.159Z,8.30
2017-10-16T14:46:51.764Z,7.47
2017-10-16T14:49:19.327Z,9.03
2017-10-16T14:51:46.980Z,7.70
2017-10-16T14:54:14.573Z,7.13
2017-10-16T14:56:42.183Z,8.13
2017-10-16T14:59:10.576Z,7.17
2017-10-16T15:01:38.202Z,7.30
2017-10-16T15:04:05.907Z,7.87
2017-10-16T15:06:33.471Z,6.83
2017-10-16T15:09:01.091Z,7.10
2017-10-16T15:11:29.749Z,7.70
2017-10-16T15:13:57.343Z,6.90
2017-10-16T15:16:25.732Z,6.20
2017-10-16T15:18:53.372Z,6.77
2017-10-16T15:21:21.769Z,7.07
2017-10-16T15:23:49.336Z,8.60
2017-10-16T15:26:16.957Z,7.23
2017-10-16T15:28:44.534Z,7.50
2017-10-16T15:31:12.917Z,7.63
2017-10-16T15:33:41.267Z,7.40
2017-10-16T15:36:08.842Z,8.20
2017-10-16T15:38:37.224Z,8.70
2017-10-16T15:41:05.668Z,8.10
2017-10-16T15:43:33.238Z,8.03
2017-10-16T15:46:00.836Z,7.33
2017-10-16T15:48:28.479Z,8.53
2017-10-16T15:50:57.115Z,8.20
2017-10-16T15:53:24.720Z,9.40
2017-10-16T15:55:53.103Z,9.17
2017-10-16T15:58:21.448Z,8.47
2017-10-16T16:00:49.076Z,9.37
2017-10-16T16:03:16.649Z,8.10
2017-10-16T16:05:44.231Z,8.67
2017-10-16T16:08:11.816Z,7.70
2017-10-16T16:10:40.167Z,8.83
2017-10-16T16:13:07.773Z,8.83
2017-10-16T16:15:35.387Z,10.10
2017-10-16T16:18:03.004Z,9.50
2017-10-16T16:20:30.651Z,8.73
2017-10-16T16:22:58.289Z,9.17
2017-10-16T16:25:26.647Z,9.30
2017-10-16T16:27:54.216Z,9.60
2017-10-16T16:30:22.588Z,9.00
2017-10-16T16:32:50.936Z,9.13
2017-10-16T16:35:18.828Z,9.23
2017-10-16T16:37:46.425Z,8.70
2017-10-16T16:40:14.031Z,9.07
2017-10-16T16:42:41.604Z,9.57
2017-10-16T16:45:09.972Z,9.80
2017-10-16T16:47:37.607Z,9.83
2017-10-16T16:50:05.247Z,9.20
2017-10-16T16:52:32.815Z,8.93
2017-10-16T16:55:00.396Z,9.27
2017-10-16T16:57:28.008Z,9.50
2017-10-16T16:59:55.605Z,9.60
2017-10-16T17:02:23.203Z,9.50
2017-10-16T17:04:51.543Z,8.40
2017-10-16T17:07:19.152Z,8.67
2017-10-16T17:09:46.728Z,8.80
2017-10-16T17:12:14.336Z,11.60
2017-10-16T17:14:41.977Z,10.60
2017-10-16T17:17:09.557Z,11.43
2017-10-16T17:19:37.184Z,9.93
2017-10-16T17:22:04.789Z,9.13
2017-10-16T17:24:33.160Z,8.90
2017-10-16T17:27:00.775Z,11.77
2017-10-16T17:29:28.387Z,9.90
2017-10-16T17:31:56.799Z,9.03
2017-10-16T17:34:24.425Z,10.03
2017-10-16T17:36:52.760Z,8.73
2017-10-16T17:39:20.369Z,9.70
2017-10-16T17:41:48.023Z,10.00
2017-10-16T17:44:16.415Z,9.90
2017-10-16T17:46:44.059Z,9.80
2017-10-16T17:49:12.397Z,9.87
2017-10-16T17:51:39.990Z,11.10
2017-10-16T17:54:08.374Z,10.30
2017-10-16T17:56:36.828Z,11.83
2017-10-16T17:59:04.453Z,11.93
2017-10-16T18:01:32.092Z,10.70
2017-10-16T18:03:59.680Z,11.30
2017-10-16T18:06:27.292Z,10.37
2017-10-16T18:08:55.644Z,10.90
2017-10-16T18:11:23.249Z,10.83
2017-10-16T18:13:50.938Z,11.77
2017-10-16T18:16:18.628Z,14.50
2017-10-16T18:18:46.209Z,12.20
2017-10-16T18:21:14.560Z,11.03
2017-10-16T18:23:42.155Z,11.63
2017-10-16T18:26:09.747Z,12.90
2017-10-16T18:28:37.374Z,13.40
2017-10-16T18:31:04.941Z,11.90
2017-10-16T18:33:32.572Z,14.80
2017-10-16T18:36:00.922Z,14.67
2017-10-16T18:38:28.500Z,13.57
2017-10-16T18:40:56.110Z,15.30
2017-10-16T18:43:23.704Z,13.33
2017-10-16T18:45:52.072Z,17.20
2017-10-16T18:48:19.651Z,15.70
2017-10-16T18:50:47.282Z,16.10
2017-10-16T18:53:14.867Z,16.27
2017-10-16T18:55:42.488Z,16.80
2017-10-16T18:58:10.082Z,14.80
2017-10-16T19:00:37.912Z,14.57
2017-10-16T19:03:05.505Z,15.30
2017-10-16T19:05:33.109Z,15.40
2017-10-16T19:08:00.743Z,16.60
2017-10-16T19:10:29.090Z,16.67
2017-10-16T19:12:56.894Z,17.00
2017-10-16T19:15:25.260Z,17.27
2017-10-16T19:17:53.593Z,16.60
2017-10-16T19:20:21.212Z,15.57
2017-10-16T19:22:48.804Z,16.27
2017-10-16T19:25:16.450Z,15.40
2017-10-16T19:27:44.038Z,16.53
2017-10-16T19:30:11.789Z,15.60
2017-10-16T19:32:39.389Z,15.83
2017-10-16T19:35:07.025Z,15.60
2017-10-16T19:37:34.640Z,15.97
2017-10-16T19:40:02.255Z,16.50
2017-10-16T19:42:29.869Z,16.10
2017-10-16T19:44:57.454Z,15.57
2017-10-16T19:47:25.096Z,16.67
2017-10-16T19:49:52.706Z,15.13
2017-10-16T19:52:21.229Z,15.70
2017-10-16T19:54:48.926Z,15.20
2017-10-16T19:57:18.040Z,15.20
2017-10-16T19:59:46.419Z,14.53
2017-10-16T20:02:14.869Z,14.30
2017-10-16T20:04:42.515Z,14.43
2017-10-16T20:07:10.110Z,14.13
2017-10-16T20:09:37.710Z,12.70
2017-10-16T20:12:05.308Z,13.60
2017-10-16T20:14:32.939Z,14.07
2017-10-16T20:17:00.528Z,13.60
2017-10-16T20:19:28.124Z,12.80
2017-10-16T20:21:56.517Z,13.20
2017-10-16T20:24:24.220Z,13.33
2017-10-16T20:26:51.869Z,14.03
2017-10-16T20:29:19.449Z,13.20
2017-10-16T20:31:47.060Z,13.07
2017-10-16T20:34:14.637Z,14.10
2017-10-16T20:36:42.239Z,13.03
2017-10-16T20:39:11.403Z,13.03
2017-10-16T20:41:39.016Z,13.50
2017-10-16T20:44:07.396Z,13.10
2017-10-16T20:46:35.004Z,13.80
2017-10-16T20:49:02.690Z,13.57
2017-10-16T20:51:30.296Z,13.33
2017-10-16T20:53:57.910Z,12.93
2017-10-16T20:56:25.499Z,14.57
2017-10-16T20:58:53.075Z,14.13
2017-10-16T21:01:20.677Z,13.13
2017-10-16T21:03:48.263Z,12.37
2017-10-16T21:06:16.633Z,13.50
2017-10-16T21:08:45.027Z,12.30
2017-10-16T21:11:12.607Z,12.43
2017-10-16T21:13:40.199Z,12.03
2017-10-16T21:16:07.792Z,12.23
2017-10-16T21:18:36.202Z,13.53
2017-10-16T21:21:03.883Z,12.50
2017-10-16T21:23:31.465Z,12.07
2017-10-16T21:25:59.119Z,12.43
2017-10-16T21:28:26.720Z,11.07
2017-10-16T21:30:54.384Z,12.90
2017-10-16T21:33:21.974Z,11.60
2017-10-16T21:35:49.614Z,12.33
2017-10-16T21:38:17.212Z,11.47
2017-10-16T21:40:44.892Z,12.97
2017-10-16T21:43:13.269Z,12.33
2017-10-16T21:45:40.832Z,12.33
2017-10-16T21:48:09.204Z,11.23
2017-10-16T21:50:36.769Z,12.60
2017-10-16T21:53:04.369Z,11.80
2017-10-16T21:55:31.942Z,12.30
2017-10-16T21:57:59.636Z,13.00
2017-10-16T22:00:27.335Z,15.07
2017-10-16T22:02:54.951Z,11.17
2017-10-16T22:05:22.536Z,14.10
2017-10-16T22:07:50.891Z,14.27
2017-10-16T22:10:18.474Z,13.30
2017-10-16T22:12:46.831Z,14.53
2017-10-16T22:15:14.504Z,13.30
2017-10-16T22:17:42.877Z,13.20
2017-10-16T22:20:11.234Z,11.77
2017-10-16T22:22:39.760Z,11.00
2017-10-16T22:25:07.359Z,11.77
2017-10-16T22:27:34.937Z,11.60
2017-10-16T22:30:02.548Z,12.00
2017-10-16T22:32:30.131Z,11.50
2017-10-16T22:34:57.733Z,11.90
2017-10-16T22:37:26.113Z,10.63
2017-10-16T22:39:54.453Z,11.30
2017-10-16T22:42:22.960Z,11.20
2017-10-16T22:44:51.296Z,11.83
2017-10-16T22:47:30.563Z,11.03
2017-10-16T22:49:58.133Z,12.00
2017-10-16T22:52:26.484Z,11.57
2017-10-16T22:54:55.654Z,12.37
2017-10-16T22:57:23.234Z,11.70
2017-10-16T22:59:50.858Z,12.10
2017-10-16T23:02:18.423Z,13.03
2017-10-16T23:04:46.013Z,13.37
2017-10-16T23:07:13.599Z,13.20
2017-10-16T23:09:42.023Z,14.30
2017-10-16T23:12:09.588Z,13.67
2017-10-16T23:14:37.165Z,13.13
2017-10-16T23:17:04.755Z,13.20
2017-10-16T23:19:33.095Z,13.50
2017-10-16T23:22:00.685Z,11.90
2017-10-16T23:24:29.067Z,11.70
2017-10-16T23:26:57.583Z,12.13
2017-10-16T23:29:25.167Z,12.87
2017-10-16T23:31:52.747Z,14.10
2017-10-16T23:34:21.206Z,13.13
2017-10-16T23:36:48.812Z,13.33
2017-10-16T23:39:17.143Z,13.50
2017-10-16T23:41:44.711Z,13.27
2017-10-16T23:44:12.452Z,13.83
2017-10-16T23:46:40.021Z,13.23
2017-10-16T23:49:07.694Z,14.07
2017-10-16T23:51:35.267Z,13.57
2017-10-16T23:54:02.935Z,12.67
2017-10-16T23:56:31.275Z,13.50
2017-10-16T23:58:58.885Z,13.90
